Wynnewood, Oklahoma
Current Conditions -  °F | °C
As of 6:35 AM on Monday 22 Dec 2014 (Local Time) from KPVJ Reporting Station
Clear Clear  
Wind Chill: 44°   Ceiling: Unl
Heat Index: 47°   Visibility: 10mi
Dew Point: 45°   Wind: 6mph
Humidity: 92%   Direction: 170°S
Pressure: 29.54"   Gusts: NA
Location:  34.64°N, 97.16°W
Report Text: KPVJ 221235Z AUTO 17005KT 10SM CLR 08/07 A2954 RMK AO2 T00830071
Loading
Personal Weather Stations






























Interactive Weather Map New forecast layout! Learn more

10-Day Weather Forecast

Advertisements
Track Severe Weather on mobile